Time;durP1;ratioP1;P1;durP2;ratioP2;P2;SDS_P1;SDS_P2;PMS_P1;PMS_P2;Temp;Humidity;BMP_temperature;BMP_pressure;BME280_temperature;BME280_humidity;BME280_pressure;Samples;Min_cycle;Max_cycle;Signal;HPM_P1;HPM_P2
2022/07/18 00:01:45;;;;;;;3.17;2.20;;;;;;;17.70;55.33;97037.88;5030775;28;20050;-79
2022/07/18 00:04:11;;;;;;;6.13;2.50;;;;;;;17.70;56.04;97040.63;5030279;28;20056;-80
2022/07/18 00:06:39;;;;;;;3.20;2.20;;;;;;;17.70;56.43;97037.06;5030700;28;20071;-80
2022/07/18 00:09:06;;;;;;;4.35;2.20;;;;;;;17.73;56.85;97036.38;5029488;28;20041;-79
2022/07/18 00:11:33;;;;;;;4.13;1.98;;;;;;;17.73;55.17;97039.16;5030354;28;20461;-80
2022/07/18 00:13:59;;;;;;;3.65;2.50;;;;;;;17.63;54.77;97039.59;5030397;28;20052;-79
2022/07/18 00:16:26;;;;;;;3.15;2.13;;;;;;;17.66;56.17;97033.41;5029854;28;20048;-79
2022/07/18 00:18:54;;;;;;;3.58;2.30;;;;;;;17.60;56.11;97038.34;5030105;28;20046;-79
2022/07/18 00:21:21;;;;;;;5.22;3.00;;;;;;;17.55;56.00;97035.84;5029591;28;20456;-78
2022/07/18 00:23:49;;;;;;;5.45;2.60;;;;;;;17.41;55.38;97041.69;5030380;28;20067;-80
2022/07/18 00:26:16;;;;;;;6.35;2.40;;;;;;;17.45;55.93;97036.31;5029682;28;20076;-80
2022/07/18 00:28:42;;;;;;;5.78;2.83;;;;;;;17.42;55.80;97043.28;5030434;28;20052;-81
2022/07/18 00:31:09;;;;;;;3.53;2.60;;;;;;;17.29;56.03;97043.66;5029719;28;20051;-80
2022/07/18 00:33:35;;;;;;;4.15;2.78;;;;;;;17.21;56.51;97048.13;5030244;28;20480;-80
2022/07/18 00:36:02;;;;;;;3.70;2.97;;;;;;;16.91;57.56;97034.59;5029900;28;20050;-81
2022/07/18 00:38:29;;;;;;;5.00;2.72;;;;;;;17.00;57.35;97033.66;5030391;28;20037;-80
2022/07/18 00:40:57;;;;;;;3.65;2.95;;;;;;;17.15;57.60;97030.22;5030536;28;20055;-81
2022/07/18 00:43:23;;;;;;;4.32;2.53;;;;;;;17.20;57.67;97035.50;5029624;28;20042;-80
2022/07/18 00:45:52;;;;;;;4.45;2.72;;;;;;;17.20;58.33;97032.75;5030084;28;20052;-80
2022/07/18 00:48:20;;;;;;;5.53;2.55;;;;;;;17.13;58.25;97035.28;5029648;28;20049;-80
2022/07/18 00:50:47;;;;;;;3.85;2.65;;;;;;;17.14;57.62;97026.69;5030210;28;20045;-80
2022/07/18 00:53:14;;;;;;;5.82;2.60;;;;;;;17.15;57.91;97028.28;5029915;28;20057;-80
2022/07/18 00:55:44;;;;;;;3.63;2.92;;;;;;;17.16;58.17;97040.88;5015310;28;20058;-80
2022/07/18 00:58:12;;;;;;;4.05;2.85;;;;;;;17.07;58.92;97036.63;5009581;28;20058;-81
2022/07/18 01:03:23;;;;;;;5.03;2.67;;;;;;;16.92;59.59;97036.19;5009808;28;20077;-80
2022/07/18 01:05:50;;;;;;;6.35;2.80;;;;;;;16.91;59.41;97034.59;5010201;28;20058;-80
2022/07/18 01:08:17;;;;;;;4.93;2.70;;;;;;;16.89;59.09;97028.59;5010025;28;20050;-80
2022/07/18 01:10:43;;;;;;;4.07;2.70;;;;;;;16.79;59.45;97031.81;5010548;28;20050;-80
2022/07/18 01:13:11;;;;;;;3.10;2.60;;;;;;;16.62;59.88;97032.78;5010011;28;20537;-80
2022/07/18 01:15:38;;;;;;;3.50;2.85;;;;;;;16.61;60.34;97031.19;5010280;28;20547;-81
2022/07/18 01:18:05;;;;;;;4.30;2.70;;;;;;;16.62;60.96;97032.78;5010084;28;20054;-80
2022/07/18 01:20:33;;;;;;;6.03;2.80;;;;;;;16.58;59.91;97029.09;5011031;28;20409;-81
2022/07/18 01:22:59;;;;;;;3.63;2.85;;;;;;;16.52;60.18;97026.91;5014509;28;20049;-80
2022/07/18 01:25:27;;;;;;;3.20;2.42;;;;;;;16.50;60.58;97030.00;5018060;28;20049;-80
2022/07/18 01:27:53;;;;;;;2.97;2.50;;;;;;;16.49;61.00;97033.09;5046349;28;20049;-80
2022/07/18 01:30:20;;;;;;;4.95;2.92;;;;;;;16.50;61.67;97034.72;5033066;28;20046;-80
2022/07/18 01:32:47;;;;;;;3.42;2.58;;;;;;;16.46;61.88;97036.53;5033651;28;20050;-80
2022/07/18 01:35:14;;;;;;;3.53;2.53;;;;;;;16.47;61.92;97040.88;5033040;28;20060;-80
2022/07/18 01:37:41;;;;;;;6.20;2.70;;;;;;;16.47;61.11;97038.13;5033335;28;20049;-80
2022/07/18 01:40:12;;;;;;;4.75;3.08;;;;;;;16.31;61.50;97038.75;5032885;28;20045;-80
2022/07/18 01:42:39;;;;;;;4.18;2.80;;;;;;;16.34;61.81;97038.09;5033474;28;20624;-80
2022/07/18 01:45:06;;;;;;;5.93;2.70;;;;;;;16.28;61.56;97039.44;5032820;28;20052;-80
2022/07/18 01:47:33;;;;;;;4.55;3.13;;;;;;;16.24;61.99;97037.72;5031962;28;20073;-81
2022/07/18 01:49:59;;;;;;;3.97;3.03;;;;;;;16.20;61.76;97040.31;5033171;28;20053;-80
2022/07/18 01:52:26;;;;;;;3.92;3.00;;;;;;;16.19;62.68;97035.97;5032481;28;20045;-81
2022/07/18 01:54:54;;;;;;;5.95;2.80;;;;;;;16.20;62.90;97037.59;5025809;28;20046;-81
2022/07/18 01:57:20;;;;;;;4.10;2.92;;;;;;;16.22;62.47;97029.78;5012790;28;20056;-81
2022/07/18 01:59:47;;;;;;;6.45;3.17;;;;;;;16.18;62.94;97034.34;5013196;28;20520;-80
2022/07/18 02:02:13;;;;;;;5.00;3.00;;;;;;;16.13;62.72;97040.88;5012600;28;20049;-80
2022/07/18 02:07:24;;;;;;;3.67;2.85;;;;;;;16.04;63.67;97033.84;5012824;28;20552;-80
2022/07/18 02:09:51;;;;;;;5.07;2.95;;;;;;;15.99;63.75;97036.81;5013010;28;20537;-80
2022/07/18 02:12:19;;;;;;;4.10;2.90;;;;;;;16.05;63.18;97035.44;5012344;28;20048;-80
2022/07/18 02:14:46;;;;;;;4.00;2.83;;;;;;;16.05;63.03;97033.50;5013162;28;20041;-80
2022/07/18 02:17:13;;;;;;;4.07;2.90;;;;;;;16.03;63.36;97035.00;5012695;28;20058;-81
2022/07/18 02:19:40;;;;;;;3.70;3.13;;;;;;;15.77;63.73;97025.03;5012797;28;20045;-80
2022/07/18 02:22:07;;;;;;;3.67;2.80;;;;;;;15.82;63.11;97022.09;5012532;28;20505;-80
2022/07/18 02:24:33;;;;;;;6.40;3.55;;;;;;;15.81;62.99;97025.94;5016152;28;20042;-81
2022/07/18 02:27:00;;;;;;;3.83;3.20;;;;;;;15.81;63.41;97025.94;5032495;28;20060;-80
2022/07/18 02:29:28;;;;;;;4.40;3.38;;;;;;;15.78;63.44;97026.63;5032322;28;20064;-80
2022/07/18 02:31:55;;;;;;;4.00;3.40;;;;;;;15.63;63.92;97029.97;5032023;28;20056;-81
2022/07/18 02:34:21;;;;;;;5.35;2.90;;;;;;;15.63;64.21;97029.97;5031957;28;20060;-81
2022/07/18 02:36:50;;;;;;;4.18;2.92;;;;;;;15.66;63.98;97023.81;5032621;28;20053;-80
2022/07/18 02:39:17;;;;;;;4.45;3.10;;;;;;;15.73;64.11;97023.28;5031796;28;20049;-82
2022/07/18 02:41:44;;;;;;;6.20;2.85;;;;;;;15.74;63.77;97025.69;5032134;28;20041;-80
2022/07/18 02:44:11;;;;;;;4.05;2.78;;;;;;;15.82;64.09;97021.28;5031662;28;20046;-79
2022/07/18 02:46:38;;;;;;;5.47;3.70;;;;;;;15.76;63.76;97022.59;5032011;28;20045;-80
2022/07/18 02:49:05;;;;;;;4.75;3.40;;;;;;;15.73;63.62;97023.28;5031894;28;20053;-80
2022/07/18 02:51:32;;;;;;;5.30;3.50;;;;;;;15.67;64.19;97019.13;5032284;28;20049;-81
2022/07/18 02:53:58;;;;;;;6.45;3.30;;;;;;;15.66;64.02;97029.31;5032271;28;20045;-83
2022/07/18 02:56:25;;;;;;;3.38;2.97;;;;;;;15.68;64.31;97027.03;5030251;28;20484;-81
2022/07/18 02:58:51;;;;;;;3.75;3.10;;;;;;;15.69;64.77;97027.84;5031968;28;20509;-81
2022/07/18 03:01:18;;;;;;;4.18;3.00;;;;;;;15.77;64.48;97024.22;5031335;28;20046;-80
2022/07/18 03:03:48;;;;;;;5.88;3.03;;;;;;;15.74;64.67;97033.91;5031944;28;20052;-80
2022/07/18 03:06:15;;;;;;;3.55;2.95;;;;;;;15.78;63.87;97037.63;5031510;28;20524;-80
2022/07/18 03:08:41;;;;;;;4.57;3.17;;;;;;;15.71;63.77;97037.31;5031588;28;20516;-80
2022/07/18 03:11:08;;;;;;;4.30;3.40;;;;;;;15.63;64.27;97043.69;5031461;28;20045;-80
2022/07/18 03:13:35;;;;;;;4.85;3.38;;;;;;;15.53;64.50;97046.81;5031757;28;20049;-81
2022/07/18 03:16:01;;;;;;;5.78;3.30;;;;;;;15.50;64.32;97047.47;5031324;28;20053;-80
2022/07/18 03:18:28;;;;;;;5.30;3.85;;;;;;;15.52;64.64;97050.69;5031609;28;20504;-81
2022/07/18 03:20:55;;;;;;;7.00;3.65;;;;;;;15.47;65.41;97045.41;5031377;28;20057;-80
2022/07/18 03:23:22;;;;;;;5.18;3.45;;;;;;;15.48;65.12;97047.00;5031628;28;20048;-80
2022/07/18 03:25:49;;;;;;;4.40;3.50;;;;;;;15.42;64.63;97051.06;5030410;28;20056;-80
2022/07/18 03:28:15;;;;;;;5.05;3.50;;;;;;;15.38;65.52;97050.94;5031010;28;20053;-80
2022/07/18 03:30:42;;;;;;;4.53;3.33;;;;;;;15.32;65.63;97052.25;5031473;28;20049;-80
2022/07/18 03:33:09;;;;;;;5.20;3.80;;;;;;;15.25;65.93;97052.78;5030901;28;20045;-80
2022/07/18 03:35:35;;;;;;;5.88;3.80;;;;;;;15.22;66.51;97056.19;5031265;28;20416;-80
2022/07/18 03:38:03;;;;;;;5.32;3.70;;;;;;;15.14;66.36;97057.84;5030560;28;20413;-80
2022/07/18 03:40:30;;;;;;;3.55;2.92;;;;;;;15.09;66.58;97059.97;5031209;28;20049;-80
2022/07/18 03:42:56;;;;;;;7.10;4.00;;;;;;;14.90;66.58;97067.78;5030727;28;20049;-80
2022/07/18 03:45:23;;;;;;;5.88;3.88;;;;;;;14.77;67.23;97064.09;5030179;28;20041;-80
2022/07/18 03:47:50;;;;;;;5.20;3.70;;;;;;;14.82;67.62;97066.66;5031122;28;20056;-80
2022/07/18 03:50:16;;;;;;;5.80;3.95;;;;;;;14.81;67.54;97065.88;5030696;28;20060;-80
2022/07/18 03:52:45;;;;;;;5.13;3.50;;;;;;;14.70;67.70;97069.31;5031354;28;20511;-80
2022/07/18 03:55:14;;;;;;;7.13;3.85;;;;;;;14.43;68.26;97063.03;5020394;28;20444;-81
2022/07/18 03:57:41;;;;;;;6.18;3.70;;;;;;;14.38;69.11;97073.38;5011238;28;20049;-80
2022/07/18 04:00:09;;;;;;;6.38;3.88;;;;;;;14.40;69.38;97073.84;5010960;28;20041;-80
2022/07/18 04:02:39;;;;;;;5.05;3.60;;;;;;;14.43;69.43;97078.69;5010928;28;20109;-80
2022/07/18 04:05:06;;;;;;;6.00;3.40;;;;;;;14.51;69.89;97073.22;5010951;28;20046;-81
2022/07/18 04:07:33;;;;;;;8.35;3.90;;;;;;;14.58;69.73;97073.53;5011394;28;20061;-80
2022/07/18 04:09:59;;;;;;;4.47;3.60;;;;;;;14.63;69.62;97080.78;5011391;28;20042;-80
2022/07/18 04:12:27;;;;;;;4.60;3.85;;;;;;;14.73;69.75;97074.94;5010538;28;20077;-79
2022/07/18 04:14:54;;;;;;;6.13;3.50;;;;;;;14.76;69.23;97082.50;5011057;28;20054;-80
2022/07/18 04:17:20;;;;;;;6.10;3.65;;;;;;;14.76;69.28;97079.75;5010698;28;20516;-81
2022/07/18 04:19:47;;;;;;;6.03;3.78;;;;;;;14.76;69.28;97076.22;5010842;28;20054;-80
2022/07/18 04:22:14;;;;;;;6.13;3.80;;;;;;;14.76;69.64;97070.72;5010579;28;20054;-80
2022/07/18 04:24:40;;;;;;;6.43;4.03;;;;;;;14.80;69.87;97074.44;5015251;28;20556;-80
2022/07/18 04:27:07;;;;;;;5.22;3.95;;;;;;;14.85;69.89;97072.31;5030369;28;20050;-80
2022/07/18 04:29:36;;;;;;;6.97;3.53;;;;;;;14.92;70.45;97071.00;5030957;28;20064;-80
2022/07/18 04:32:02;;;;;;;5.97;4.22;;;;;;;14.99;69.72;97074.06;5029903;28;20053;-80
2022/07/18 04:34:29;;;;;;;5.85;4.00;;;;;;;15.06;68.45;97071.59;5030352;28;20505;-81
2022/07/18 04:36:55;;;;;;;6.13;3.60;;;;;;;15.19;68.06;97073.31;5030762;28;20489;-80
2022/07/18 04:39:22;;;;;;;4.30;3.60;;;;;;;15.30;67.39;97071.00;5029707;28;20049;-80
2022/07/18 04:41:48;;;;;;;4.97;3.38;;;;;;;15.34;66.85;97061.75;5030600;28;20524;-81
2022/07/18 04:44:15;;;;;;;4.68;3.50;;;;;;;15.44;65.43;97065.25;5029954;28;20061;-81
2022/07/18 04:46:43;;;;;;;5.55;4.18;;;;;;;15.47;64.62;97070.09;5030540;28;20053;-81
2022/07/18 04:49:10;;;;;;;9.32;4.07;;;;;;;15.49;63.66;97067.81;5030452;28;20496;-80
2022/07/18 04:51:36;;;;;;;4.80;3.33;;;;;;;15.52;62.98;97062.47;5031105;28;20493;-81
2022/07/18 04:54:03;;;;;;;6.03;3.78;;;;;;;15.60;63.75;97063.53;5029530;28;20485;-80
2022/07/18 04:56:29;;;;;;;4.60;3.40;;;;;;;15.68;63.36;97067.41;5014633;28;20057;-79
2022/07/18 04:58:56;;;;;;;5.38;3.30;;;;;;;15.69;62.43;97067.06;5014895;28;20049;-80
2022/07/18 05:01:23;;;;;;;5.00;3.17;;;;;;;15.88;62.76;97061.94;5014426;28;20042;-80
2022/07/18 05:03:50;;;;;;;6.03;3.50;;;;;;;15.94;62.06;97057.03;5014770;28;20692;-79
2022/07/18 05:06:17;;;;;;;5.20;3.38;;;;;;;15.98;62.29;97068.16;5012951;28;20129;-79
2022/07/18 05:08:43;;;;;;;4.20;3.50;;;;;;;16.02;62.12;97069.06;5014615;28;20060;-79
2022/07/18 05:11:10;;;;;;;5.97;3.42;;;;;;;16.06;62.37;97059.84;5013972;28;20684;-79
2022/07/18 05:13:37;;;;;;;7.03;3.55;;;;;;;16.14;62.70;97061.72;5014393;28;20053;-81
2022/07/18 05:16:04;;;;;;;4.03;3.38;;;;;;;16.17;62.47;97065.72;5013532;28;20049;-80
2022/07/18 05:18:30;;;;;;;4.93;3.63;;;;;;;16.23;61.69;97063.56;5014564;28;20058;-81
2022/07/18 05:20:58;;;;;;;5.78;3.50;;;;;;;16.12;60.61;97063.97;5014160;28;20062;-80
2022/07/18 05:23:25;;;;;;;4.78;3.20;;;;;;;16.32;61.13;97067.84;5013821;28;20053;-80
2022/07/18 05:25:52;;;;;;;5.05;3.08;;;;;;;16.42;61.82;97066.63;5028209;28;20046;-80
2022/07/18 05:28:18;;;;;;;4.72;3.28;;;;;;;16.51;62.51;97063.81;5033605;28;20042;-80
2022/07/18 05:30:45;;;;;;;5.68;3.10;;;;;;;16.43;60.44;97060.78;5033712;28;20565;-80
2022/07/18 05:33:11;;;;;;;4.53;3.20;;;;;;;16.49;59.95;97063.31;5033447;28;20048;-79
2022/07/18 05:35:39;;;;;;;7.70;3.83;;;;;;;16.57;60.48;97076.19;5034332;28;20049;-79
2022/07/18 05:38:07;;;;;;;5.38;3.60;;;;;;;16.71;60.18;97065.72;5033209;28;20077;-79
2022/07/18 05:40:33;;;;;;;4.78;3.22;;;;;;;16.85;61.16;97068.13;5033471;28;20045;-79
2022/07/18 05:43:00;;;;;;;5.82;3.35;;;;;;;16.92;60.39;97069.19;5033570;28;20048;-80
2022/07/18 05:45:27;;;;;;;5.93;3.45;;;;;;;16.99;58.48;97063.13;5045151;28;20056;-80
2022/07/18 05:47:54;;;;;;;4.10;2.90;;;;;;;17.08;59.10;97060.28;5053650;28;20647;-81
2022/07/18 05:50:21;;;;;;;5.10;3.58;;;;;;;17.20;59.25;97063.03;5052923;28;20073;-81
2022/07/18 05:52:47;;;;;;;4.60;3.38;;;;;;;17.28;60.40;97062.13;5053391;28;20045;-79
2022/07/18 05:55:16;;;;;;;4.60;3.00;;;;;;;17.34;60.44;97062.69;5042206;28;20046;-80
2022/07/18 05:57:42;;;;;;;4.88;3.38;;;;;;;17.43;60.79;97066.91;5033163;28;20048;-80
2022/07/18 06:00:11;;;;;;;4.25;2.90;;;;;;;17.51;58.23;97067.94;5032565;28;20416;-80
2022/07/18 06:02:38;;;;;;;5.25;3.10;;;;;;;17.59;57.99;97063.47;5033537;28;20080;-79
2022/07/18 06:05:05;;;;;;;4.10;2.88;;;;;;;17.71;57.80;97066.22;5032928;28;20053;-80
2022/07/18 06:07:32;;;;;;;6.72;3.47;;;;;;;17.80;58.32;97058.66;5032239;28;20133;-80
2022/07/18 06:09:59;;;;;;;9.07;3.50;;;;;;;17.96;57.01;97062.28;5032779;28;20463;-79
2022/07/18 06:12:30;;;;;;;5.95;3.30;;;;;;;18.06;56.87;97051.91;5032509;28;20053;-80
2022/07/18 06:14:57;;;;;;;6.28;2.95;;;;;;;18.05;56.32;97053.06;5032632;28;20038;-80
2022/07/18 06:17:24;;;;;;;5.15;3.20;;;;;;;18.15;56.32;97053.38;5032501;28;20125;-79
2022/07/18 06:19:50;;;;;;;4.07;2.92;;;;;;;18.26;56.29;97056.44;5032903;28;20103;-79
2022/07/18 06:22:17;;;;;;;7.22;3.67;;;;;;;18.38;56.45;97056.41;5032111;28;20056;-80
2022/07/18 06:24:43;;;;;;;5.38;3.33;;;;;;;18.46;56.16;97058.19;5032408;28;20049;-80
2022/07/18 06:27:10;;;;;;;5.28;2.83;;;;;;;18.46;53.59;97060.16;5032415;28;20448;-79
2022/07/18 06:29:38;;;;;;;6.53;3.00;;;;;;;18.62;53.77;97060.19;5032721;28;20046;-79
2022/07/18 06:32:06;;;;;;;5.25;3.03;;;;;;;18.74;53.34;97057.38;5031977;28;20080;-79
2022/07/18 06:34:32;;;;;;;4.20;3.22;;;;;;;18.77;52.87;97051.16;5031423;28;20042;-79
2022/07/18 06:36:59;;;;;;;5.80;3.10;;;;;;;18.95;54.03;97052.44;5032662;28;20049;-79
2022/07/18 06:39:25;;;;;;;5.90;3.13;;;;;;;19.03;54.02;97056.16;5031679;28;20413;-80
2022/07/18 06:41:52;;;;;;;4.85;2.50;;;;;;;19.14;53.34;97056.44;5032540;28;20041;-79
2022/07/18 06:44:18;;;;;;;6.63;3.20;;;;;;;19.03;52.81;97054.19;5031771;28;20055;-80
2022/07/18 06:46:46;;;;;;;4.93;3.13;;;;;;;19.15;52.30;97049.75;5032434;28;20046;-80
2022/07/18 06:49:13;;;;;;;6.72;3.10;;;;;;;19.35;52.22;97062.47;5031648;28;20052;-80
2022/07/18 06:51:39;;;;;;;5.35;2.95;;;;;;;19.38;50.93;97053.47;5032147;28;20052;-80
2022/07/18 06:54:06;;;;;;;7.10;3.28;;;;;;;19.54;50.95;97058.97;5031427;28;20051;-79
2022/07/18 06:56:33;;;;;;;4.45;2.72;;;;;;;19.45;50.96;97064.69;5032366;28;20080;-80
2022/07/18 06:58:59;;;;;;;6.60;3.05;;;;;;;19.40;51.06;97062.19;5031939;28;20041;-80
2022/07/18 07:01:26;;;;;;;3.55;2.45;;;;;;;19.56;51.64;97071.25;5031731;28;20481;-79
2022/07/18 07:03:54;;;;;;;2.95;2.35;;;;;;;19.81;51.22;97065.53;5031953;28;20164;-79
2022/07/18 07:06:20;;;;;;;5.38;2.80;;;;;;;19.82;50.73;97067.13;5031514;28;20061;-80
2022/07/18 07:08:47;;;;;;;6.20;2.90;;;;;;;20.02;51.17;97063.25;5031805;28;20440;-79
2022/07/18 07:11:14;;;;;;;3.97;2.83;;;;;;;20.17;49.83;97066.31;5031297;28;20049;-80
2022/07/18 07:13:40;;;;;;;3.13;2.50;;;;;;;20.25;50.35;97068.84;5031606;28;20045;-80
2022/07/18 07:16:07;;;;;;;4.25;2.70;;;;;;;20.29;50.08;97069.72;5031049;28;20050;-79
2022/07/18 07:18:33;;;;;;;3.33;2.65;;;;;;;20.44;49.73;97053.44;5031519;28;20054;-80
2022/07/18 07:21:01;;;;;;;3.25;2.53;;;;;;;20.52;49.42;97063.50;5031600;28;20510;-79
2022/07/18 07:23:28;;;;;;;4.72;2.42;;;;;;;20.55;48.45;97066.31;5031183;28;20485;-80
2022/07/18 07:25:55;;;;;;;4.63;2.90;;;;;;;20.70;49.58;97070.19;5046401;28;20053;-79
2022/07/18 07:28:21;;;;;;;6.05;2.50;;;;;;;20.88;48.35;97070.53;5051149;28;20056;-80
2022/07/18 07:30:48;;;;;;;3.53;2.65;;;;;;;21.10;48.93;97075.25;5051120;28;20053;-79
2022/07/18 07:33:14;;;;;;;4.35;2.42;;;;;;;21.21;47.77;97080.19;5050722;28;20052;-80
2022/07/18 07:35:41;;;;;;;3.25;2.25;;;;;;;21.30;47.82;97072.47;5051218;28;20056;-81
2022/07/18 07:38:10;;;;;;;6.13;2.45;;;;;;;21.43;47.34;97073.06;5050934;28;20045;-80
2022/07/18 07:40:36;;;;;;;3.63;2.50;;;;;;;21.52;47.34;97079.94;5051347;28;20454;-79
2022/07/18 07:43:08;;;;;;;3.40;2.30;;;;;;;21.69;45.37;97075.03;5050765;28;20522;-78
2022/07/18 07:45:35;;;;;;;3.72;2.58;;;;;;;21.73;45.27;97073.13;5051222;28;20045;-79
2022/07/18 07:48:01;;;;;;;3.50;2.17;;;;;;;21.96;45.33;97076.63;5050842;28;20507;-79
2022/07/18 07:50:28;;;;;;;4.72;2.45;;;;;;;22.09;45.01;97072.47;5050991;28;20045;-80
2022/07/18 07:52:55;;;;;;;5.63;2.35;;;;;;;22.14;45.62;97071.38;5050765;28;20049;-79
2022/07/18 07:55:23;;;;;;;3.20;2.53;;;;;;;22.37;44.83;97068.47;5038797;28;20056;-79
2022/07/18 07:57:50;;;;;;;5.10;2.83;;;;;;;22.35;46.50;97076.38;5030928;28;20045;-80
2022/07/18 08:00:17;;;;;;;4.18;2.47;;;;;;;22.62;45.91;97064.03;5030652;28;20057;-80
2022/07/18 08:02:55;;;;;;;5.88;2.30;;;;;;;22.62;44.06;97075.13;5030658;28;20053;-79
2022/07/18 08:05:22;;;;;;;3.28;2.10;;;;;;;22.83;43.42;97059.88;5030195;28;20052;-80
2022/07/18 08:07:48;;;;;;;5.57;2.30;;;;;;;23.12;42.05;97064.53;5030857;28;20041;-79
2022/07/18 08:10:15;;;;;;;3.17;2.10;;;;;;;23.25;40.57;97067.06;5029937;28;20055;-79
2022/07/18 08:12:43;;;;;;;6.10;2.20;;;;;;;23.71;40.46;97061.91;5030527;28;20511;-79
2022/07/18 08:15:10;;;;;;;4.97;2.10;;;;;;;24.13;41.52;97063.34;5030033;28;20057;-80
2022/07/18 08:17:37;;;;;;;3.30;2.00;;;;;;;24.55;39.96;97068.31;5030539;28;20052;-79
2022/07/18 08:20:05;;;;;;;3.33;2.17;;;;;;;24.83;39.06;97064.00;5029949;28;20060;-80
2022/07/18 08:22:31;;;;;;;3.80;2.22;;;;;;;25.34;37.67;97065.72;5030219;28;20053;-79
2022/07/18 08:24:58;;;;;;;5.80;2.42;;;;;;;25.25;38.79;97060.53;5030052;28;20044;-80
2022/07/18 08:27:25;;;;;;;4.35;2.00;;;;;;;25.46;38.47;97059.72;5029847;28;20041;-79
2022/07/18 08:29:52;;;;;;;3.88;1.90;;;;;;;25.95;37.94;97063.72;5029888;28;20050;-79
2022/07/18 08:32:19;;;;;;;5.72;2.10;;;;;;;25.93;35.86;97057.72;5029956;28;20041;-79
2022/07/18 08:34:46;;;;;;;5.28;2.00;;;;;;;26.15;38.16;97064.84;5030256;28;20045;-80
2022/07/18 08:37:12;;;;;;;3.53;1.95;;;;;;;26.17;35.93;97056.88;5029767;28;20052;-79
2022/07/18 08:39:39;;;;;;;3.92;2.20;;;;;;;26.58;36.31;97056.34;5030491;28;20037;-79
2022/07/18 08:42:07;;;;;;;3.65;2.00;;;;;;;26.74;37.04;97051.06;5030355;28;20045;-80
2022/07/18 08:44:37;;;;;;;2.95;2.15;;;;;;;26.66;34.55;97057.09;5030137;28;20045;-79
2022/07/18 08:47:06;;;;;;;2.35;1.67;;;;;;;26.31;35.50;97052.41;5029748;28;20037;-80
2022/07/18 08:49:34;;;;;;;3.83;2.35;;;;;;;26.49;34.95;97058.78;5030147;28;20056;-79
2022/07/18 08:52:01;;;;;;;2.83;1.80;;;;;;;26.68;35.78;97058.28;5030088;28;20049;-79
2022/07/18 08:54:27;;;;;;;5.47;2.00;;;;;;;26.83;36.35;97058.19;5029599;28;20041;-79
2022/07/18 08:56:54;;;;;;;2.83;2.00;;;;;;;27.14;35.19;97046.03;5030059;28;20045;-79
2022/07/18 08:59:20;;;;;;;2.83;1.90;;;;;;;27.36;35.24;97052.28;5030082;28;20493;-80
2022/07/18 09:01:47;;;;;;;3.53;2.20;;;;;;;27.31;35.19;97055.53;5030041;28;20042;-80
2022/07/18 09:04:32;;;;;;;6.70;2.00;;;;;;;26.89;34.42;97057.38;5029645;28;20073;-79
2022/07/18 09:06:59;;;;;;;2.85;1.60;;;;;;;27.01;34.39;97047.72;5029947;28;20044;-81
2022/07/18 09:09:26;;;;;;;1.92;1.30;;;;;;;27.15;33.54;97046.88;5029707;28;20042;-80
2022/07/18 09:11:54;;;;;;;1.95;1.42;;;;;;;27.19;31.29;97047.59;5029973;28;20045;-80
2022/07/18 09:14:36;;;;;;;5.13;1.80;;;;;;;27.28;32.98;97050.75;5029476;28;20076;-79
2022/07/18 09:17:09;;;;;;;3.13;1.30;;;;;;;27.44;31.60;97050.22;5029400;28;20408;-79
2022/07/18 09:19:38;;;;;;;;;;;;;;;27.64;30.94;97040.06;5030553;28;20049;-79
2022/07/18 09:22:16;;;;;;;2.25;1.60;;;;;;;27.46;31.73;97045.00;5029150;28;19928;-78
2022/07/18 09:25:01;;;;;;;5.13;1.67;;;;;;;27.63;31.87;97037.69;5029833;28;20046;-79
2022/07/18 09:27:31;;;;;;;3.25;1.38;;;;;;;27.91;30.21;97047.81;5029594;28;20038;-81
2022/07/18 09:30:17;;;;;;;4.55;1.38;;;;;;;27.82;29.96;97040.72;5029735;28;20053;-80
2022/07/18 09:32:45;;;;;;;2.67;1.48;;;;;;;27.90;26.63;97046.22;5010089;28;20042;-79
2022/07/18 09:35:16;;;;;;;3.20;1.77;;;;;;;28.08;28.03;97041.22;5009927;28;20049;-79
2022/07/18 09:37:54;;;;;;;3.75;1.33;;;;;;;28.25;30.79;97043.06;5009949;28;20177;-79
2022/07/18 09:40:23;;;;;;;3.83;1.48;;;;;;;28.27;30.15;97043.41;5009465;28;20046;-79
2022/07/18 09:42:50;;;;;;;5.20;1.30;;;;;;;28.30;26.93;97037.00;5012592;28;20061;-80
2022/07/18 09:45:17;;;;;;;2.85;1.55;;;;;;;28.46;28.37;97049.63;5012942;28;20555;-79
2022/07/18 09:47:51;;;;;;;3.22;1.30;;;;;;;28.34;27.54;97042.56;5013210;28;20046;-79
2022/07/18 09:50:25;;;;;;;3.45;1.17;;;;;;;28.25;27.01;97043.06;5012955;28;20444;-79
2022/07/18 09:53:16;;;;;;;4.97;1.83;;;;;;;28.38;27.87;97037.72;5013355;28;20054;-79
2022/07/18 09:55:45;;;;;;;2.60;1.08;;;;;;;28.50;24.47;97042.75;5012499;28;20049;-79
2022/07/18 09:58:12;;;;;;;3.58;1.38;;;;;;;28.69;26.69;97046.91;5012625;28;20507;-79
2022/07/18 10:00:40;;;;;;;3.22;1.73;;;;;;;28.62;27.86;97041.41;5013133;28;20050;-79
2022/07/18 10:03:08;;;;;;;2.83;1.10;;;;;;;28.66;27.03;97050.59;5012547;28;20054;-79
2022/07/18 10:05:37;;;;;;;4.20;1.45;;;;;;;28.50;25.54;97044.75;5012995;28;20066;-79
2022/07/18 10:08:06;;;;;;;3.03;1.35;;;;;;;28.58;25.96;97038.66;5012352;28;20049;-79
2022/07/18 10:10:33;;;;;;;2.33;1.05;;;;;;;28.58;26.60;97029.47;5012994;28;20053;-80
2022/07/18 10:13:01;;;;;;;2.50;1.30;;;;;;;28.63;27.53;97040.19;5012673;28;20524;-79
2022/07/18 10:15:29;;;;;;;2.38;1.20;;;;;;;28.48;27.68;97030.38;5012405;28;20408;-79
2022/07/18 10:17:57;;;;;;;2.78;1.30;;;;;;;28.31;26.62;97030.16;5012630;28;20061;-79
2022/07/18 10:20:30;;;;;;;1.92;1.42;;;;;;;28.12;26.68;97030.78;5012222;28;20056;-79
2022/07/18 10:23:02;;;;;;;3.30;1.30;;;;;;;28.09;27.96;97037.25;5012978;28;20064;-79
2022/07/18 10:25:29;;;;;;;2.33;1.30;;;;;;;28.50;29.76;97030.75;5012498;28;20046;-79
2022/07/18 10:28:05;;;;;;;2.25;1.40;;;;;;;28.71;28.81;97036.09;5012460;28;20632;-79
2022/07/18 10:30:35;;;;;;;3.47;1.42;;;;;;;28.66;25.17;97030.97;5012372;28;20053;-78
2022/07/18 10:33:02;;;;;;;2.15;1.38;;;;;;;28.84;25.72;97031.50;5012279;28;20057;-79
2022/07/18 10:36:00;;;;;;;2.75;1.20;;;;;;;28.71;22.41;97030.50;5012491;28;20041;-79
2022/07/18 10:38:28;;;;;;;3.63;1.30;;;;;;;28.54;26.24;97028.72;4970361;28;20677;-79
2022/07/18 10:41:12;;;;;;;2.63;1.10;;;;;;;28.66;26.10;97036.56;5002664;28;20049;-79
2022/07/18 10:43:41;;;;;;;2.58;1.17;;;;;;;28.43;25.63;97034.44;5012432;28;20050;-79
2022/07/18 10:46:09;;;;;;;3.38;1.42;;;;;;;28.55;28.08;97031.09;5011728;28;20049;-80
2022/07/18 10:48:53;;;;;;;3.42;1.25;;;;;;;28.78;25.28;97033.19;5011993;28;20049;-79
2022/07/18 10:51:28;;;;;;;6.97;1.40;;;;;;;28.73;25.20;97030.84;5011631;28;20050;-79
2022/07/18 10:54:05;;;;;;;2.00;1.20;;;;;;;28.79;23.54;97023.56;5011761;28;20507;-79
2022/07/18 10:57:10;;;;;;;2.95;1.45;;;;;;;28.53;25.15;97032.72;4992433;28;20046;-79
2022/07/18 10:59:55;;;;;;;2.05;1.23;;;;;;;28.63;27.88;97026.19;5012041;28;20054;-79
2022/07/18 11:02:32;;;;;;;2.78;1.75;;;;;;;28.51;26.70;97023.97;5011296;28;20054;-79
2022/07/18 11:04:59;;;;;;;2.72;1.40;;;;;;;28.72;27.39;97015.25;5011911;28;20112;-78
2022/07/18 11:07:25;;;;;;;3.55;1.50;;;;;;;28.48;26.85;97024.78;5011205;28;20042;-79
2022/07/18 11:09:53;;;;;;;5.50;1.48;;;;;;;28.30;27.63;97014.59;5011991;28;20053;-80
2022/07/18 11:12:25;;;;;;;4.22;1.30;;;;;;;28.59;27.77;97008.63;5011327;28;20053;-79
2022/07/18 11:15:06;;;;;;;3.10;1.27;;;;;;;28.74;29.24;97009.22;5011720;28;20050;-79
2022/07/18 11:18:04;;;;;;;5.22;1.40;;;;;;;28.86;25.78;97015.03;5011559;28;20042;-80
2022/07/18 11:20:37;;;;;;;3.90;1.42;;;;;;;29.02;25.62;97008.03;5009136;28;20479;-79
2022/07/18 11:23:05;;;;;;;2.45;1.25;;;;;;;29.04;26.70;97012.00;5011147;28;20137;-79
2022/07/18 11:25:33;;;;;;;10.32;1.50;;;;;;;29.27;27.10;97000.03;5035351;28;20053;-78
2022/07/18 11:27:59;;;;;;;3.05;1.52;;;;;;;29.09;24.74;97003.13;5050926;28;20049;-79
2022/07/18 11:30:26;;;;;;;2.65;1.45;;;;;;;28.91;25.09;97007.38;5050478;28;20381;-79
2022/07/18 11:32:52;;;;;;;2.65;1.20;;;;;;;28.82;23.77;97000.31;5050861;28;20049;-79
2022/07/18 11:35:24;;;;;;;2.00;1.30;;;;;;;28.61;23.14;96989.41;5050206;28;20053;-79
2022/07/18 11:37:52;;;;;;;2.63;1.40;;;;;;;28.67;25.26;96992.53;5050832;28;20459;-79
2022/07/18 11:40:19;;;;;;;3.83;1.70;;;;;;;28.63;25.67;96994.56;5050566;28;20072;-80
2022/07/18 11:42:47;;;;;;;3.05;1.38;;;;;;;28.78;26.61;97001.56;5050735;28;20044;-79
2022/07/18 11:45:16;;;;;;;2.95;1.30;;;;;;;28.91;27.19;96996.16;5050255;28;20492;-79